ENFL/FRO METAR and TAF weather

Enter ICAO airport designator
Station Type Date Time Source
ENFL METAR 2021/09/24 06:50 UTC NOAA

ENFL 240650Z 13014KT 9999 RA FEW015 SCT020 BKN030 07/06 Q0994


Station Type Date Time Source
ENFL Decoded METAR 2021/09/24 06:50 UTC NOAA

Floro, Norway (ENFL) 61-35N 005-02E 9M
Sep 24, 2021 - 02:50 AM EDT / 2021.09.24 0650 UTC
Wind: from the SE (130 degrees) at 16 MPH (14 KT):0
Visibility: greater than 7 mile(s):0
Sky conditions: mostly cloudy
Weather: rain
Temperature: 44 F (7 C)
Dew Point: 42 F (6 C)
Relative Humidity: 93%
Pressure (altimeter): 29.35 in. Hg (0994 hPa)
ob: ENFL 240650Z 13014KT 9999 RA FEW015 SCT020 BKN030 07/06 Q0994
cycle: 7

Station Type Date Time Source
ENFL TAF 2010/02/05 07:50 UTC NOAA

METAR ENFL 050750Z 16019KT 140V200 9999 FEW015 SCT030 BKN055 03/M03 Q1011

Example: see airport list